Time;durP1;ratioP1;P1;durP2;ratioP2;P2;SDS_P1;SDS_P2;PMS_P1;PMS_P2;Temp;Humidity;BMP_temperature;BMP_pressure;BME280_temperature;BME280_humidity;BME280_pressure;Samples;Min_cycle;Max_cycle;Signal;HPM_P1;HPM_P2
2024/02/04 00:01:01;;;;;;;2.10;1.23;;;9.50;99.90;;;;;;4997614;28;20933;-79
2024/02/04 00:03:31;;;;;;;1.20;1.20;;;9.60;1.00;;;;;;4993305;28;20533;-79
2024/02/04 00:05:59;;;;;;;1.20;1.20;;;9.50;99.90;;;;;;4992523;28;20445;-79
2024/02/04 00:08:27;;;;;;;1.27;1.20;;;9.50;99.90;;;;;;4993568;28;20462;-79
2024/02/04 00:10:55;;;;;;;1.20;1.20;;;9.50;99.90;;;;;;4990066;28;20461;-79
2024/02/04 00:13:23;;;;;;;1.20;1.20;;;9.50;99.90;;;;;;4994399;28;20477;-79
2024/02/04 00:15:54;;;;;;;1.20;1.20;;;9.50;99.90;;;;;;4995158;28;20985;-80
2024/02/04 00:18:22;;;;;;;1.20;1.20;;;9.60;1.00;;;;;;4992091;28;20481;-79
2024/02/04 00:20:51;;;;;;;1.20;1.20;;;9.60;99.90;;;;;;4997130;28;20838;-79
2024/02/04 00:23:20;;;;;;;1.10;1.10;;;9.50;99.90;;;;;;4998001;28;20478;-79
2024/02/04 00:25:48;;;;;;;1.20;1.20;;;9.50;99.90;;;;;;4994236;28;20466;-80
2024/02/04 00:28:16;;;;;;;1.20;1.20;;;9.50;99.90;;;;;;4991426;28;20454;-80
2024/02/04 00:30:44;;;;;;;1.23;1.23;;;9.50;99.90;;;;;;4996472;28;20481;-80
2024/02/04 00:33:12;;;;;;;1.20;1.20;;;9.50;99.90;;;;;;4996052;28;21321;-79
2024/02/04 00:35:40;;;;;;;1.30;1.30;;;9.50;99.90;;;;;;4999759;28;20454;-77
2024/02/04 00:38:09;;;;;;;1.20;1.20;;;9.40;99.90;;;;;;4996641;28;21345;-79
2024/02/04 00:40:37;;;;;;;1.30;1.30;;;9.40;1.00;;;;;;4999510;28;20489;-80
2024/02/04 00:43:06;;;;;;;1.90;1.20;;;9.40;1.00;;;;;;4993291;28;20476;-80
2024/02/04 00:45:34;;;;;;;1.20;1.20;;;9.30;1.00;;;;;;4992892;28;20537;-79
2024/02/04 00:48:03;;;;;;;1.20;1.20;;;9.20;1.00;;;;;;4989725;28;20464;-78
2024/02/04 00:50:31;;;;;;;1.50;1.40;;;9.30;1.00;;;;;;4994025;28;21177;-78
2024/02/04 00:52:59;;;;;;;1.20;1.20;;;9.30;1.00;;;;;;4992239;28;20454;-79
2024/02/04 00:55:29;;;;;;;1.20;1.20;;;9.20;1.00;;;;;;4994741;28;20913;-79
2024/02/04 00:58:00;;;;;;;1.30;1.30;;;9.20;1.00;;;;;;4991528;28;20480;-80
2024/02/04 01:00:28;;;;;;;1.30;1.30;;;9.20;1.00;;;;;;4973780;28;20529;-79
2024/02/04 01:02:56;;;;;;;1.30;1.30;;;9.20;1.00;;;;;;4990457;28;20467;-79
2024/02/04 01:05:24;;;;;;;1.30;1.30;;;9.20;1.00;;;;;;4994175;28;20462;-79
2024/02/04 01:07:52;;;;;;;1.40;1.40;;;9.20;1.00;;;;;;4995084;28;20540;-80
2024/02/04 01:10:20;;;;;;;1.20;1.20;;;9.20;1.00;;;;;;4997508;28;20461;-81
2024/02/04 01:12:50;;;;;;;1.30;1.30;;;9.20;1.00;;;;;;4998051;28;20548;-81
2024/02/04 01:15:18;;;;;;;1.30;1.30;;;9.20;1.00;;;;;;4997552;28;20585;-80
2024/02/04 01:17:47;;;;;;;1.20;1.20;;;9.20;1.00;;;;;;5002423;28;20958;-80
2024/02/04 01:20:15;;;;;;;1.33;1.33;;;9.20;1.00;;;;;;4997753;28;20509;-80
2024/02/04 01:22:43;;;;;;;1.30;1.30;;;9.20;1.00;;;;;;4994340;28;20462;-79
2024/02/04 01:25:11;;;;;;;1.27;1.27;;;9.20;1.00;;;;;;4996858;28;20486;-79
2024/02/04 01:27:39;;;;;;;1.30;1.30;;;9.20;1.00;;;;;;4997172;28;20459;-80
2024/02/04 01:30:09;;;;;;;1.30;1.30;;;9.20;1.00;;;;;;4997141;28;20465;-81
2024/02/04 01:32:37;;;;;;;1.20;1.20;;;9.20;1.00;;;;;;4999668;28;20454;-80
2024/02/04 01:35:07;;;;;;;1.30;1.30;;;9.10;1.00;;;;;;5005108;28;20474;-80
2024/02/04 01:37:35;;;;;;;1.37;1.27;;;9.10;1.00;;;;;;5000322;28;20882;-80
2024/02/04 01:40:04;;;;;;;1.10;1.10;;;9.10;1.00;;;;;;4993571;28;20492;-79
2024/02/04 01:42:32;;;;;;;1.20;1.20;;;9.20;1.00;;;;;;5001375;28;20458;-80
2024/02/04 01:45:00;;;;;;;1.40;1.40;;;9.10;1.00;;;;;;5005381;28;20489;-79
2024/02/04 01:47:30;;;;;;;2.70;1.30;;;9.00;1.00;;;;;;5004635;28;20488;-80
2024/02/04 01:49:59;;;;;;;1.30;1.30;;;9.10;1.00;;;;;;5004546;28;20473;-80
2024/02/04 01:52:27;;;;;;;1.60;1.50;;;9.10;1.00;;;;;;4998977;28;20461;-79
2024/02/04 01:54:56;;;;;;;1.20;1.20;;;9.10;1.00;;;;;;4998275;28;20489;-80
2024/02/04 01:57:25;;;;;;;1.20;1.20;;;9.10;1.00;;;;;;4994826;28;21073;-80
2024/02/04 01:59:56;;;;;;;1.37;1.37;;;9.10;1.00;;;;;;4990900;28;21299;-80
2024/02/04 02:02:24;;;;;;;1.50;1.40;;;9.10;1.00;;;;;;4997126;28;20527;-80
2024/02/04 02:04:54;;;;;;;1.30;1.30;;;9.10;1.00;;;;;;4995929;28;20504;-78
2024/02/04 02:07:24;;;;;;;1.40;1.40;;;9.10;1.00;;;;;;4992721;28;20464;-79
2024/02/04 02:09:52;;;;;;;1.30;1.30;;;9.10;1.00;;;;;;4993942;28;20465;-79
2024/02/04 02:12:25;;;;;;;1.53;1.50;;;9.10;1.00;;;;;;4993768;28;20464;-79
2024/02/04 02:15:00;;;;;;;1.30;1.30;;;9.10;1.00;;;;;;4991669;28;20572;-79
2024/02/04 02:17:34;;;;;;;1.67;1.57;;;9.20;1.00;;;;;;4995729;28;21010;-80
2024/02/04 02:20:12;;;;;;;1.27;1.27;;;9.10;1.00;;;;;;4997007;28;20493;-80
2024/02/04 02:22:49;;;;;;;1.30;1.30;;;9.20;1.00;;;;;;5002608;28;20461;-79
2024/02/04 02:25:21;;;;;;;1.30;1.30;;;9.10;1.00;;;;;;4999947;28;20806;-80
2024/02/04 02:27:50;;;;;;;1.30;1.30;;;9.10;1.00;;;;;;4996206;28;20681;-80
2024/02/04 02:30:19;;;;;;;1.40;1.40;;;9.10;1.00;;;;;;4996831;28;21148;-79
2024/02/04 02:32:49;;;;;;;1.60;1.50;;;9.10;1.00;;;;;;5001009;28;20456;-80
2024/02/04 02:35:18;;;;;;;1.67;1.60;;;9.00;1.00;;;;;;5001595;28;20448;-79
2024/02/04 02:37:56;;;;;;;1.40;1.40;;;9.00;1.00;;;;;;5001511;28;20458;-79
2024/02/04 02:40:31;;;;;;;1.57;1.30;;;9.00;1.00;;;;;;5000335;28;20461;-79
2024/02/04 02:43:03;;;;;;;1.23;1.23;;;9.00;1.00;;;;;;5001590;28;21038;-79
2024/02/04 02:45:31;;;;;;;1.40;1.40;;;9.10;1.00;;;;;;4995834;28;20509;-80
2024/02/04 02:48:01;;;;;;;1.50;1.50;;;9.10;1.00;;;;;;4996464;28;20524;-79
2024/02/04 02:50:29;;;;;;;1.37;1.37;;;9.10;1.00;;;;;;4998477;28;20456;-80
2024/02/04 02:52:58;;;;;;;1.40;1.40;;;9.10;1.00;;;;;;4995778;28;20475;-80
2024/02/04 02:55:27;;;;;;;1.20;1.20;;;9.10;1.00;;;;;;4995847;28;20489;-79
2024/02/04 02:57:55;;;;;;;1.50;1.50;;;9.10;1.00;;;;;;4994780;28;20462;-79
2024/02/04 03:00:23;;;;;;;1.40;1.40;;;9.10;1.00;;;;;;4994066;28;20542;-80
2024/02/04 03:02:52;;;;;;;1.40;1.40;;;9.10;1.00;;;;;;5001423;28;20471;-80
2024/02/04 03:05:20;;;;;;;1.40;1.40;;;9.10;1.00;;;;;;4994122;28;20484;-79
2024/02/04 03:07:48;;;;;;;1.40;1.40;;;9.10;1.00;;;;;;4995612;28;20967;-84
2024/02/04 03:10:16;;;;;;;1.50;1.50;;;9.10;1.00;;;;;;4998534;28;20975;-84
2024/02/04 03:12:45;;;;;;;1.60;1.50;;;9.10;1.00;;;;;;4999699;28;20469;-82
2024/02/04 03:15:14;;;;;;;1.40;1.30;;;9.10;1.00;;;;;;4999133;28;20482;-79
2024/02/04 03:17:44;;;;;;;1.27;1.27;;;9.10;1.00;;;;;;5002026;28;20462;-84
2024/02/04 03:20:12;;;;;;;1.50;1.50;;;9.10;1.00;;;;;;4981108;28;20485;-78
2024/02/04 03:22:40;;;;;;;1.13;1.13;;;9.10;1.00;;;;;;4995976;28;20535;-82
2024/02/04 03:25:09;;;;;;;1.20;1.20;;;9.10;1.00;;;;;;4995338;28;20476;-81
2024/02/04 03:27:37;;;;;;;1.20;1.20;;;9.00;1.00;;;;;;4995936;28;20465;-80
2024/02/04 03:30:08;;;;;;;1.20;1.20;;;9.10;1.00;;;;;;4997379;28;20468;-80
2024/02/04 03:32:36;;;;;;;1.33;1.33;;;9.00;1.00;;;;;;4993938;28;20458;-80
2024/02/04 03:35:05;;;;;;;1.20;1.20;;;9.10;1.00;;;;;;4993516;28;20492;-79
2024/02/04 03:37:33;;;;;;;1.30;1.30;;;9.10;1.00;;;;;;4993200;28;20511;-80
2024/02/04 03:40:01;;;;;;;1.20;1.20;;;9.00;1.00;;;;;;4994487;28;20514;-80
2024/02/04 03:42:29;;;;;;;1.40;1.40;;;9.00;1.00;;;;;;4995210;28;20992;-81
2024/02/04 03:44:57;;;;;;;1.30;1.30;;;9.00;9.10;;;;;;4991128;28;20476;-82
2024/02/04 03:47:27;;;;;;;1.40;1.40;;;9.00;33.90;;;;;;4991012;28;20457;-79
2024/02/04 03:49:55;;;;;;;1.40;1.40;;;8.90;1.00;;;;;;4992610;28;20975;-83
2024/02/04 03:52:23;;;;;;;1.30;1.30;;;8.90;57.60;;;;;;4992995;28;20485;-82
2024/02/04 03:54:53;;;;;;;1.30;1.30;;;8.90;51.00;;;;;;4994931;28;20473;-81
2024/02/04 03:57:21;;;;;;;1.57;1.40;;;9.00;92.40;;;;;;4994080;28;20523;-81
2024/02/04 03:59:50;;;;;;;1.30;1.30;;;8.90;17.40;;;;;;4994478;28;20492;-79
2024/02/04 04:02:18;;;;;;;1.30;1.30;;;9.00;19.30;;;;;;4979493;28;20521;-79
2024/02/04 04:04:48;;;;;;;1.40;1.40;;;8.90;1.00;;;;;;4994790;28;20486;-80
2024/02/04 04:07:16;;;;;;;1.50;1.50;;;8.90;1.00;;;;;;4992568;28;20459;-78
2024/02/04 04:09:45;;;;;;;1.40;1.40;;;8.80;1.00;;;;;;4995529;28;20454;-79
2024/02/04 04:12:13;;;;;;;1.50;1.50;;;8.90;91.60;;;;;;4989362;28;20466;-79
2024/02/04 04:14:41;;;;;;;1.40;1.40;;;9.00;99.90;;;;;;4989309;28;20904;-79
2024/02/04 04:17:09;;;;;;;1.50;1.50;;;9.10;99.90;;;;;;4995769;28;20551;-79
2024/02/04 04:19:37;;;;;;;1.53;1.43;;;9.10;99.90;;;;;;4990269;28;20453;-78
2024/02/04 04:22:06;;;;;;;1.77;1.60;;;9.10;99.90;;;;;;4993309;28;20937;-78
2024/02/04 04:24:35;;;;;;;1.50;1.50;;;9.10;90.20;;;;;;4996442;28;20909;-80
2024/02/04 04:27:03;;;;;;;1.40;1.40;;;9.10;1.00;;;;;;4994289;28;21055;-79
2024/02/04 04:29:31;;;;;;;1.40;1.40;;;9.10;1.00;;;;;;4994764;28;20476;-78
2024/02/04 04:31:59;;;;;;;1.40;1.40;;;9.10;1.00;;;;;;4995338;28;20454;-77
2024/02/04 04:34:27;;;;;;;1.40;1.40;;;9.10;1.00;;;;;;4999863;28;20466;-80
2024/02/04 04:36:56;;;;;;;1.40;1.40;;;9.10;1.00;;;;;;4997206;28;22417;-79
2024/02/04 04:39:25;;;;;;;1.30;1.30;;;9.10;1.00;;;;;;4995573;28;20439;-80
2024/02/04 04:41:53;;;;;;;1.40;1.40;;;9.00;1.00;;;;;;5002274;28;20476;-79
2024/02/04 04:44:21;;;;;;;1.70;1.60;;;9.00;1.00;;;;;;5001337;28;21000;-81
2024/02/04 04:46:49;;;;;;;1.40;1.40;;;8.90;1.00;;;;;;5002808;28;20461;-79
2024/02/04 04:49:17;;;;;;;1.30;1.30;;;8.90;1.00;;;;;;4997897;28;20454;-79
2024/02/04 04:51:47;;;;;;;1.43;1.43;;;8.90;1.00;;;;;;5008695;28;20450;-79
2024/02/04 04:54:15;;;;;;;1.40;1.40;;;8.90;1.00;;;;;;5001802;28;20524;-79
2024/02/04 04:56:44;;;;;;;1.60;1.60;;;8.90;1.00;;;;;;5006129;28;20516;-79
2024/02/04 04:59:13;;;;;;;1.47;1.47;;;8.90;1.00;;;;;;5003569;28;20465;-81
2024/02/04 05:01:46;;;;;;;1.50;1.50;;;8.90;1.00;;;;;;5001859;28;21006;-83
2024/02/04 05:04:16;;;;;;;1.40;1.40;;;8.90;1.00;;;;;;5006609;28;20558;-79
2024/02/04 05:06:44;;;;;;;1.30;1.30;;;8.90;1.00;;;;;;5004792;28;20454;-79
2024/02/04 05:09:12;;;;;;;1.80;1.70;;;9.00;1.00;;;;;;5008296;28;20453;-79
2024/02/04 05:11:40;;;;;;;1.47;1.47;;;8.90;1.00;;;;;;5003773;28;20507;-80
2024/02/04 05:14:10;;;;;;;1.40;1.40;;;8.90;1.00;;;;;;4978499;28;20477;-78
2024/02/04 05:16:38;;;;;;;1.40;1.40;;;8.90;1.00;;;;;;5002445;28;20472;-80
2024/02/04 05:19:06;;;;;;;1.50;1.40;;;8.90;1.00;;;;;;4997177;28;20537;-80
2024/02/04 05:21:38;;;;;;;1.40;1.40;;;8.90;1.00;;;;;;4999513;28;20462;-80
2024/02/04 05:24:06;;;;;;;1.30;1.30;;;8.90;1.00;;;;;;4983760;28;20590;-80
2024/02/04 05:26:34;;;;;;;1.60;1.50;;;8.80;1.00;;;;;;5000729;28;20461;-80
2024/02/04 05:29:03;;;;;;;1.60;1.50;;;8.80;1.00;;;;;;5001290;28;21000;-79
2024/02/04 05:31:32;;;;;;;1.30;1.30;;;8.90;1.00;;;;;;4997276;28;20446;-79
2024/02/04 05:34:00;;;;;;;1.30;1.30;;;8.80;1.00;;;;;;4997699;28;20476;-80
2024/02/04 05:36:28;;;;;;;1.30;1.30;;;8.80;52.70;;;;;;4998714;28;20523;-78
2024/02/04 05:38:56;;;;;;;1.30;1.30;;;8.80;1.00;;;;;;5002130;28;20970;-82
2024/02/04 05:41:25;;;;;;;1.30;1.30;;;8.80;1.00;;;;;;5002144;28;20568;-80
2024/02/04 05:43:53;;;;;;;1.30;1.30;;;8.80;1.00;;;;;;4998982;28;20473;-80
2024/02/04 05:46:21;;;;;;;1.30;1.30;;;8.80;1.00;;;;;;4997989;28;20543;-83
2024/02/04 05:48:51;;;;;;;1.30;1.30;;;8.90;1.00;;;;;;5002535;28;20476;-80
2024/02/04 05:51:19;;;;;;;1.27;1.27;;;8.90;1.00;;;;;;4996429;28;20453;-81
2024/02/04 05:53:47;;;;;;;1.27;1.27;;;8.80;1.00;;;;;;5001970;28;20469;-79
2024/02/04 05:56:15;;;;;;;1.40;1.40;;;8.80;1.00;;;;;;5000855;28;20466;-79
2024/02/04 05:58:44;;;;;;;1.47;1.47;;;8.80;1.00;;;;;;5001085;28;20442;-80
2024/02/04 06:01:12;;;;;;;1.40;1.40;;;8.80;1.00;;;;;;4980580;28;20484;-82
2024/02/04 06:03:40;;;;;;;1.40;1.40;;;8.80;1.00;;;;;;5001926;28;20556;-79
2024/02/04 06:06:09;;;;;;;1.60;1.60;;;8.90;1.00;;;;;;4996243;28;20447;-79
2024/02/04 06:08:37;;;;;;;1.63;1.40;;;8.80;1.00;;;;;;4997833;28;20479;-81
2024/02/04 06:11:06;;;;;;;1.70;1.60;;;8.80;1.00;;;;;;4999104;28;20552;-79
2024/02/04 06:13:34;;;;;;;1.30;1.30;;;8.80;1.00;;;;;;4998522;28;20478;-79
2024/02/04 06:16:02;;;;;;;1.73;1.50;;;8.90;1.00;;;;;;4997390;28;20504;-80
2024/02/04 06:18:30;;;;;;;1.40;1.40;;;8.90;1.00;;;;;;4997516;28;20450;-79
2024/02/04 06:20:59;;;;;;;1.40;1.40;;;8.90;1.00;;;;;;4998767;28;20537;-77
2024/02/04 06:23:28;;;;;;;1.40;1.40;;;8.90;1.00;;;;;;4999016;28;20627;-80
2024/02/04 06:25:56;;;;;;;1.30;1.30;;;8.90;1.00;;;;;;4981867;28;20469;-80
2024/02/04 06:28:25;;;;;;;1.30;1.30;;;8.80;1.00;;;;;;4994361;28;20581;-80
2024/02/04 06:30:54;;;;;;;1.37;1.27;;;8.90;1.00;;;;;;4999407;28;20458;-79
2024/02/04 06:33:23;;;;;;;1.30;1.30;;;8.80;1.00;;;;;;5000534;28;20485;-79
2024/02/04 06:35:51;;;;;;;1.33;1.33;;;8.80;1.00;;;;;;5008595;28;20454;-79
2024/02/04 06:38:19;;;;;;;1.40;1.40;;;8.80;1.00;;;;;;4998543;28;20462;-80
2024/02/04 06:40:49;;;;;;;1.30;1.30;;;8.90;1.00;;;;;;4996956;28;20469;-81
2024/02/04 06:43:17;;;;;;;1.40;1.40;;;8.90;1.00;;;;;;5000686;28;20483;-80
2024/02/04 06:45:45;;;;;;;1.63;1.57;;;8.90;1.00;;;;;;4997637;28;20469;-79
2024/02/04 06:48:14;;;;;;;1.40;1.40;;;8.90;1.00;;;;;;4993370;28;20604;-80
2024/02/04 06:50:43;;;;;;;1.40;1.40;;;8.90;1.00;;;;;;4998057;28;20456;-80
2024/02/04 06:53:11;;;;;;;1.60;1.60;;;8.90;1.00;;;;;;4984860;28;20462;-81
2024/02/04 06:55:39;;;;;;;1.40;1.40;;;8.90;1.00;;;;;;5000615;28;21236;-78
2024/02/04 06:58:09;;;;;;;1.60;1.60;;;8.90;17.30;;;;;;4999569;28;20465;-79
2024/02/04 07:00:37;;;;;;;1.50;1.50;;;8.90;1.00;;;;;;4999055;28;20458;-81
2024/02/04 07:03:05;;;;;;;2.00;1.60;;;8.90;42.50;;;;;;4997625;28;20474;-80
2024/02/04 07:05:34;;;;;;;1.60;1.60;;;8.90;13.20;;;;;;5000137;28;21047;-79
2024/02/04 07:08:02;;;;;;;1.60;1.50;;;8.80;1.00;;;;;;4998802;28;21213;-81
2024/02/04 07:10:30;;;;;;;1.83;1.73;;;8.90;1.00;;;;;;4995299;28;20468;-82
2024/02/04 07:12:58;;;;;;;1.50;1.50;;;8.90;1.00;;;;;;4997938;28;20450;-80
2024/02/04 07:15:28;;;;;;;1.70;1.70;;;8.90;20.00;;;;;;4995967;28;20485;-79
2024/02/04 07:17:56;;;;;;;1.63;1.60;;;8.90;1.00;;;;;;4998886;28;20521;-81
2024/02/04 07:20:24;;;;;;;1.80;1.70;;;8.90;1.00;;;;;;4999917;28;20505;-81
2024/02/04 07:22:53;;;;;;;1.70;1.60;;;8.80;1.00;;;;;;4998310;28;20535;-80
2024/02/04 07:25:22;;;;;;;1.50;1.50;;;8.90;56.50;;;;;;4998458;28;20458;-80
2024/02/04 07:27:50;;;;;;;1.50;1.50;;;8.90;1.00;;;;;;5001235;28;20459;-81
2024/02/04 07:30:19;;;;;;;1.70;1.70;;;8.80;99.90;;;;;;5005460;28;20210;-82
2024/02/04 07:32:49;;;;;;;2.37;2.17;;;8.90;43.10;;;;;;5002360;28;20569;-80
2024/02/04 07:35:18;;;;;;;1.50;1.40;;;9.00;99.40;;;;;;5005575;28;20489;-80
2024/02/04 07:37:46;;;;;;;1.50;1.50;;;9.00;1.00;;;;;;4999148;28;20458;-80
2024/02/04 07:40:14;;;;;;;2.93;2.73;;;9.00;43.10;;;;;;5001211;28;20470;-79
2024/02/04 07:42:42;;;;;;;1.50;1.50;;;9.00;1.00;;;;;;4987292;28;20478;-82
2024/02/04 07:45:11;;;;;;;1.50;1.50;;;8.90;1.00;;;;;;4995941;28;20483;-80
2024/02/04 07:47:39;;;;;;;1.70;1.70;;;9.00;1.00;;;;;;4996246;28;20459;-81
2024/02/04 07:50:09;;;;;;;2.10;2.00;;;9.00;1.00;;;;;;5003178;28;20544;-80
2024/02/04 07:52:38;;;;;;;1.90;1.80;;;9.10;1.00;;;;;;4984952;28;20453;-79
2024/02/04 07:55:11;;;;;;;1.60;1.60;;;9.10;1.00;;;;;;5003853;28;20470;-81
2024/02/04 07:57:40;;;;;;;1.93;1.70;;;9.20;1.00;;;;;;5003804;28;20454;-81
2024/02/04 08:00:10;;;;;;;1.43;1.43;;;9.20;1.00;;;;;;5005143;28;20438;-81
2024/02/04 08:02:39;;;;;;;1.43;1.40;;;9.20;1.00;;;;;;5004299;28;20469;-81
2024/02/04 08:05:09;;;;;;;1.30;1.30;;;9.10;1.00;;;;;;4998416;28;20612;-80
2024/02/04 08:07:37;;;;;;;1.50;1.47;;;9.20;1.00;;;;;;4984423;28;20455;-80
2024/02/04 08:10:07;;;;;;;1.40;1.40;;;9.00;1.00;;;;;;5003165;28;20478;-83
2024/02/04 08:12:35;;;;;;;1.50;1.50;;;9.10;1.00;;;;;;5003538;28;20455;-85
2024/02/04 08:15:04;;;;;;;1.50;1.50;;;9.00;99.90;;;;;;5002002;28;20484;-80
2024/02/04 08:17:33;;;;;;;1.70;1.60;;;9.00;1.00;;;;;;4998800;28;20529;-81
2024/02/04 08:20:03;;;;;;;1.50;1.50;;;9.10;35.30;;;;;;5001855;28;20453;-82
2024/02/04 08:22:33;;;;;;;1.60;1.60;;;9.10;1.00;;;;;;5000616;28;20489;-82
2024/02/04 08:25:02;;;;;;;2.60;2.40;;;9.20;78.80;;;;;;5000533;28;21000;-80
2024/02/04 08:27:31;;;;;;;1.70;1.60;;;9.20;1.00;;;;;;5003617;28;20453;-80
2024/02/04 08:29:59;;;;;;;2.27;2.17;;;9.30;1.00;;;;;;5000929;28;20473;-79
2024/02/04 08:32:27;;;;;;;1.47;1.47;;;9.40;1.00;;;;;;5004704;28;20553;-82
2024/02/04 08:34:55;;;;;;;1.60;1.60;;;9.40;1.00;;;;;;4993427;28;20446;-83
2024/02/04 08:37:23;;;;;;;1.70;1.70;;;9.40;1.00;;;;;;4998594;28;20203;-79
2024/02/04 08:39:57;;;;;;;1.83;1.50;;;9.50;1.00;;;;;;5002883;28;20469;-80
2024/02/04 08:42:25;;;;;;;1.50;1.50;;;9.60;1.00;;;;;;5001701;28;20471;-81
2024/02/04 08:44:53;;;;;;;1.60;1.60;;;9.60;1.00;;;;;;5004491;28;21019;-81
2024/02/04 08:47:21;;;;;;;1.50;1.50;;;9.60;1.00;;;;;;5003690;28;20450;-79
2024/02/04 08:49:49;;;;;;;1.40;1.40;;;9.60;1.00;;;;;;5000642;28;20457;-82
2024/02/04 08:52:17;;;;;;;1.50;1.50;;;9.60;1.00;;;;;;5004540;28;20493;-82
2024/02/04 08:54:46;;;;;;;1.70;1.70;;;9.60;1.00;;;;;;5006537;28;20543;-81
2024/02/04 08:57:16;;;;;;;1.60;1.60;;;9.70;1.00;;;;;;5000818;28;20824;-80
2024/02/04 08:59:44;;;;;;;1.40;1.40;;;9.70;1.00;;;;;;5007600;28;20512;-81
2024/02/04 09:02:12;;;;;;;1.50;1.50;;;9.80;1.00;;;;;;5003521;28;20454;-82
2024/02/04 09:04:41;;;;;;;1.40;1.40;;;9.80;1.00;;;;;;4990335;28;20482;-85
2024/02/04 09:07:10;;;;;;;2.10;2.00;;;9.90;1.00;;;;;;4990346;28;20572;-80
2024/02/04 09:09:38;;;;;;;1.70;1.60;;;10.00;1.00;;;;;;5000553;28;20470;-81
2024/02/04 09:12:06;;;;;;;1.50;1.50;;;10.00;1.00;;;;;;4999783;28;20464;-80
2024/02/04 09:14:36;;;;;;;1.77;1.67;;;10.00;1.00;;;;;;5001350;28;20549;-80
2024/02/04 09:17:04;;;;;;;1.50;1.40;;;10.10;1.00;;;;;;5001975;28;20710;-80
2024/02/04 09:19:33;;;;;;;1.30;1.30;;;10.10;1.00;;;;;;4980160;28;20454;-80
2024/02/04 09:22:04;;;;;;;1.60;1.60;;;10.10;1.00;;;;;;5000498;28;20464;-80
2024/02/04 09:24:32;;;;;;;1.30;1.30;;;10.30;1.00;;;;;;5001242;28;20535;-79
2024/02/04 09:27:01;;;;;;;1.50;1.40;;;10.40;1.00;;;;;;4996509;28;20470;-79
2024/02/04 09:29:29;;;;;;;1.40;1.40;;;10.40;1.00;;;;;;5000896;28;20840;-80
2024/02/04 09:31:58;;;;;;;1.50;1.50;;;10.50;1.00;;;;;;5001204;28;21317;-81
2024/02/04 09:34:26;;;;;;;1.60;1.60;;;10.70;99.90;;;;;;5004219;28;20537;-81
2024/02/04 09:36:55;;;;;;;1.70;1.60;;;10.90;99.90;;;;;;5001796;28;20489;-81
2024/02/04 09:39:23;;;;;;;1.37;1.37;;;11.00;99.90;;;;;;5001801;28;20446;-80
2024/02/04 09:41:52;;;;;;;1.57;1.47;;;11.10;99.90;;;;;;5000363;28;20498;-78
2024/02/04 09:44:20;;;;;;;1.30;1.30;;;11.50;99.90;;;;;;4998551;28;20609;-81
2024/02/04 09:46:48;;;;;;;1.40;1.40;;;11.60;99.90;;;;;;4996137;28;20820;-81
2024/02/04 09:49:18;;;;;;;1.20;1.20;;;11.80;99.90;;;;;;5004236;28;20478;-79
2024/02/04 09:51:46;;;;;;;1.20;1.20;;;11.80;99.90;;;;;;4999744;28;22806;-81
2024/02/04 09:54:17;;;;;;;1.40;1.40;;;12.00;99.90;;;;;;4999503;28;20887;-81
2024/02/04 09:56:46;;;;;;;1.30;1.30;;;12.20;99.90;;;;;;4994595;28;20458;-78
2024/02/04 09:59:14;;;;;;;1.77;1.30;;;12.30;99.90;;;;;;5000825;28;20496;-78
2024/02/04 10:01:42;;;;;;;1.67;1.57;;;12.40;99.90;;;;;;4996376;28;20573;-78
2024/02/04 10:04:11;;;;;;;1.47;1.40;;;12.60;99.90;;;;;;4999739;28;20584;-81
2024/02/04 10:06:41;;;;;;;1.50;1.40;;;12.80;99.90;;;;;;5004191;28;21000;-80
2024/02/04 10:09:09;;;;;;;1.20;1.20;;;13.10;99.90;;;;;;4999056;28;20927;-79
2024/02/04 10:11:37;;;;;;;1.23;1.23;;;13.60;99.90;;;;;;4999612;28;20476;-78
2024/02/04 10:14:06;;;;;;;1.20;1.20;;;14.40;99.90;;;;;;4997282;28;20490;-79
2024/02/04 10:16:37;;;;;;;1.30;1.30;;;15.40;99.90;;;;;;4996869;28;20458;-80
2024/02/04 10:19:05;;;;;;;1.20;1.20;;;16.30;99.90;;;;;;4999440;28;20458;-79
2024/02/04 10:21:33;;;;;;;1.20;1.20;;;17.20;99.90;;;;;;4999198;28;21014;-78
2024/02/04 10:24:02;;;;;;;1.10;1.10;;;17.80;99.90;;;;;;4998561;28;21081;-79
2024/02/04 10:26:33;;;;;;;1.20;1.20;;;18.40;99.90;;;;;;5005059;28;20469;-82
2024/02/04 10:29:03;;;;;;;1.30;1.20;;;18.60;99.90;;;;;;5003054;28;20534;-82
2024/02/04 10:31:31;;;;;;;1.20;1.20;;;18.50;99.90;;;;;;5000104;28;20465;-81
2024/02/04 10:34:01;;;;;;;1.20;1.20;;;19.00;99.90;;;;;;4997960;28;20463;-82
2024/02/04 10:36:31;;;;;;;1.53;1.53;;;18.40;99.90;;;;;;5004085;28;20558;-83
2024/02/04 10:39:00;;;;;;;1.57;1.53;;;19.00;99.90;;;;;;4996359;28;20459;-82
2024/02/04 10:41:32;;;;;;;1.20;1.20;;;18.20;99.90;;;;;;4993521;28;20553;-81
2024/02/04 10:44:05;;;;;;;1.20;1.20;;;17.00;99.90;;;;;;4995301;28;20485;-79
2024/02/04 10:46:37;;;;;;;1.10;1.10;;;16.10;99.90;;;;;;4979529;28;20666;-81
2024/02/04 10:49:09;;;;;;;1.20;1.20;;;15.40;99.90;;;;;;4998974;28;20462;-80
2024/02/04 10:51:40;;;;;;;1.30;1.30;;;14.80;99.90;;;;;;5000412;28;20520;-81
2024/02/04 10:54:09;;;;;;;1.30;1.20;;;15.50;99.90;;;;;;5002611;28;20469;-80
2024/02/04 10:56:43;;;;;;;1.13;1.13;;;17.60;99.90;;;;;;4993587;28;20442;-79
2024/02/04 10:59:12;;;;;;;1.10;1.10;;;16.60;99.90;;;;;;4997453;28;20556;-79
2024/02/04 11:01:42;;;;;;;1.20;1.20;;;15.50;99.90;;;;;;4997005;28;20926;-80
2024/02/04 11:04:12;;;;;;;1.37;1.10;;;14.60;99.90;;;;;;4995341;28;20494;-81
2024/02/04 11:06:41;;;;;;;1.10;1.10;;;14.10;99.90;;;;;;5000472;28;20527;-78
2024/02/04 11:09:10;;;;;;;1.10;1.10;;;13.70;99.90;;;;;;4999757;28;20466;-78
2024/02/04 11:11:40;;;;;;;1.10;1.10;;;13.60;99.90;;;;;;4997399;28;20462;-79
2024/02/04 11:14:13;;;;;;;1.03;1.03;;;13.50;99.90;;;;;;4991336;28;20732;-79
2024/02/04 11:17:09;;;;;;;1.20;1.20;;;13.60;99.90;;;;;;4996813;28;20450;-81
2024/02/04 11:19:47;;;;;;;1.27;1.27;;;14.30;99.90;;;;;;4992712;28;20481;-78
2024/02/04 11:22:30;;;;;;;1.40;1.30;;;15.60;99.90;;;;;;4995087;28;20801;-80
2024/02/04 11:25:23;;;;;;;1.87;1.77;;;16.00;99.90;;;;;;4995899;28;20484;-79
2024/02/04 11:27:53;;;;;;;1.20;1.20;;;16.40;99.90;;;;;;4991860;28;20563;-79
2024/02/04 11:30:22;;;;;;;1.20;1.20;;;17.00;99.90;;;;;;4994603;28;20462;-79
2024/02/04 11:32:50;;;;;;;1.20;1.20;;;16.40;99.90;;;;;;4977955;28;20528;-80
2024/02/04 11:35:22;;;;;;;1.07;1.07;;;15.60;99.90;;;;;;4998396;28;20450;-82
2024/02/04 11:37:51;;;;;;;1.20;1.20;;;15.00;99.90;;;;;;4996016;28;20446;-80
2024/02/04 11:40:23;;;;;;;1.17;1.17;;;14.60;99.90;;;;;;4997960;28;20461;-79
2024/02/04 11:43:03;;;;;;;1.20;1.20;;;14.30;99.90;;;;;;4998213;28;21088;-79
2024/02/04 11:45:32;;;;;;;1.10;1.10;;;14.30;99.90;;;;;;4994982;28;20484;-80
2024/02/04 11:48:02;;;;;;;2.40;1.10;;;14.60;99.90;;;;;;4994935;28;20477;-82
2024/02/04 11:50:31;;;;;;;1.10;1.10;;;14.60;99.90;;;;;;4997577;28;21084;-80
2024/02/04 11:53:06;;;;;;;1.10;1.10;;;14.40;99.90;;;;;;4998710;28;20454;-81
2024/02/04 11:55:35;;;;;;;1.20;1.20;;;14.10;99.90;;;;;;4997299;28;20453;-82
2024/02/04 11:58:07;;;;;;;1.20;1.20;;;14.00;99.90;;;;;;4996309;28;20914;-78
2024/02/04 12:00:35;;;;;;;1.40;1.40;;;13.80;99.90;;;;;;4994100;28;21033;-79
2024/02/04 12:03:04;;;;;;;1.13;1.13;;;13.70;99.90;;;;;;4995477;28;20469;-80
2024/02/04 12:05:33;;;;;;;1.10;1.10;;;13.50;99.90;;;;;;4997570;28;20713;-79
2024/02/04 12:08:04;;;;;;;1.10;1.07;;;13.40;99.90;;;;;;4995409;28;20464;-80
2024/02/04 12:10:33;;;;;;;1.20;1.20;;;13.30;99.90;;;;;;4997075;28;20435;-80
2024/02/04 12:13:03;;;;;;;1.23;1.13;;;13.20;99.90;;;;;;4997863;28;20467;-78
2024/02/04 12:15:34;;;;;;;1.10;1.10;;;13.20;99.90;;;;;;4993689;28;20966;-80
2024/02/04 12:18:10;;;;;;;1.30;1.30;;;13.10;99.90;;;;;;4997752;28;20532;-82
2024/02/04 12:20:39;;;;;;;1.20;1.20;;;13.10;99.90;;;;;;4999306;28;20445;-79
2024/02/04 12:23:08;;;;;;;1.10;1.10;;;13.10;99.90;;;;;;4997670;28;20921;-81
2024/02/04 12:25:37;;;;;;;1.30;1.30;;;13.10;99.90;;;;;;4997957;28;20478;-79
2024/02/04 12:28:10;;;;;;;1.20;1.20;;;13.10;99.90;;;;;;4996776;28;20453;-80
2024/02/04 12:30:40;;;;;;;1.30;1.30;;;13.10;99.90;;;;;;4997383;28;20472;-79
2024/02/04 12:33:08;;;;;;;1.30;1.30;;;13.20;99.90;;;;;;4993831;28;20458;-80
2024/02/04 12:35:38;;;;;;;1.43;1.30;;;13.30;99.90;;;;;;4991541;28;20548;-79
2024/02/04 12:38:07;;;;;;;1.70;1.60;;;13.40;99.90;;;;;;4975708;28;20748;-80
2024/02/04 12:40:35;;;;;;;1.40;1.30;;;13.40;99.90;;;;;;4983067;28;20472;-80
2024/02/04 12:43:04;;;;;;;1.20;1.20;;;13.30;99.90;;;;;;4996408;28;20455;-80
2024/02/04 12:45:34;;;;;;;1.10;1.10;;;13.30;99.90;;;;;;4992958;28;20473;-80
2024/02/04 12:48:04;;;;;;;1.20;1.20;;;13.10;99.90;;;;;;4966586;28;20461;-78
2024/02/04 12:50:35;;;;;;;1.20;1.20;;;13.00;99.90;;;;;;4996824;28;21323;-81
2024/02/04 12:53:05;;;;;;;1.17;1.17;;;13.00;99.90;;;;;;4990395;28;20466;-79
2024/02/04 12:55:34;;;;;;;1.40;1.40;;;13.00;99.90;;;;;;4990717;28;20462;-79
2024/02/04 12:58:04;;;;;;;1.33;1.33;;;13.10;99.90;;;;;;4999037;28;20961;-81
2024/02/04 13:00:33;;;;;;;1.40;1.40;;;13.10;99.90;;;;;;4999000;28;20465;-81
2024/02/04 13:03:04;;;;;;;1.40;1.40;;;13.10;99.90;;;;;;5006124;28;20455;-79
2024/02/04 13:05:32;;;;;;;1.20;1.20;;;13.00;99.90;;;;;;4998948;28;20550;-79
2024/02/04 13:08:02;;;;;;;1.20;1.20;;;12.90;99.90;;;;;;5000843;28;20465;-79
2024/02/04 13:10:33;;;;;;;1.37;1.37;;;12.90;99.90;;;;;;5002865;28;20516;-80